Worthing, United Kingdom
Current Conditions -  °F | °C
As of 2:20 PM on Thursday 18 Dec 2014 (Local Time) from EGKA Reporting Station
Haze Haze  
Wind Chill: 54°   Ceiling: 1000
Heat Index: 54°   Visibility: 2.6mi
Dew Point: 52°   Wind: 23mph
Humidity: 94%   Direction: 240°WSW
Pressure: 29.91"   Gusts: 35mph
Location:  50.81°N, 0.37°W
Report Text: EGKA 181420Z 24020G30KT 4200 HZ FEW007 BKN010 12/11 Q1013 REDZ
Loading
Personal Weather Stations






























Interactive Weather Map New forecast layout! Learn more

10-Day Weather Forecast

Advertisements
Track Severe Weather on mobile